Terminal Aerodrome Forecast
Issued by NWS Albany, NY

Home | Current Version | Previous Version | Text Only | Print | Product List | Glossary On
Versions: 1 2 3 4 5 6 7 8 9 10 11 12 13 14 15 16 17 18 19 20 21 22 23 24 25
000
FTUS41 KALY 091305 AAA
TAFALB
TAF AMD
KALB 091305Z 0913/1012 30013KT P6SM VCSH FEW035 SCT050
     FM091600 31014G20KT P6SM SCT050
     FM092200 31008KT P6SM VCSH BKN035
     FM100900 31006KT P6SM FEW035 SCT050=

USA.gov is the U.S. government's official web portal to all federal, state and local government web resources and services.